createdAt,value
2018-05-17T00:02:24.259Z,91.10
2018-05-17T00:04:56.591Z,91.10
2018-05-17T00:07:29.066Z,91.20
2018-05-17T00:10:01.470Z,91.00
2018-05-17T00:12:33.830Z,90.70
2018-05-17T00:15:06.967Z,90.80
2018-05-17T00:17:39.402Z,90.80
2018-05-17T00:20:11.825Z,91.00
2018-05-17T00:22:44.267Z,91.40
2018-05-17T00:25:16.556Z,91.30
2018-05-17T00:27:48.884Z,91.30
2018-05-17T00:30:21.948Z,91.20
2018-05-17T00:32:54.316Z,91.20
2018-05-17T00:35:26.817Z,90.90
2018-05-17T00:37:59.176Z,91.00
2018-05-17T00:40:31.424Z,91.10
2018-05-17T00:43:03.788Z,91.00
2018-05-17T00:45:36.149Z,91.10
2018-05-17T00:48:08.441Z,91.20
2018-05-17T00:50:40.738Z,91.30
2018-05-17T00:53:25.455Z,91.30
2018-05-17T00:55:57.704Z,91.20
2018-05-17T00:58:30.048Z,90.80
2018-05-17T01:01:03.192Z,91.00
2018-05-17T01:03:35.614Z,91.00
2018-05-17T01:06:08.641Z,91.40
2018-05-17T01:08:40.943Z,91.40
2018-05-17T01:11:13.292Z,91.40
2018-05-17T01:13:45.616Z,91.40
2018-05-17T01:16:18.668Z,91.00
2018-05-17T01:18:51.038Z,90.90
2018-05-17T01:21:23.317Z,90.90
2018-05-17T01:23:55.936Z,91.10
2018-05-17T01:26:29.145Z,90.90
2018-05-17T01:29:01.551Z,90.90
2018-05-17T01:31:33.935Z,90.90
2018-05-17T01:34:06.269Z,90.90
2018-05-17T01:36:38.831Z,91.20
2018-05-17T01:39:11.303Z,90.90
2018-05-17T01:41:43.643Z,90.80
2018-05-17T01:44:15.955Z,90.90
2018-05-17T01:46:48.355Z,91.10
2018-05-17T01:49:20.764Z,91.10
2018-05-17T01:51:53.047Z,90.90
2018-05-17T01:54:25.509Z,90.90
2018-05-17T01:56:57.925Z,90.60
2018-05-17T01:59:30.367Z,90.60
2018-05-17T02:02:03.432Z,90.40
2018-05-17T02:04:35.900Z,90.40
2018-05-17T02:07:08.208Z,90.20
2018-05-17T02:09:40.970Z,90.30
2018-05-17T02:12:13.216Z,90.10
2018-05-17T02:14:45.728Z,90.30
2018-05-17T02:17:17.995Z,90.20
2018-05-17T02:19:50.345Z,90.10
2018-05-17T02:22:22.731Z,89.40
2018-05-17T02:24:55.052Z,89.70
2018-05-17T02:27:27.302Z,90.20
2018-05-17T02:30:00.413Z,89.00
2018-05-17T02:32:32.989Z,89.00
2018-05-17T02:35:05.383Z,89.40
2018-05-17T02:37:37.717Z,88.70
2018-05-17T02:40:10.825Z,88.20
2018-05-17T02:42:43.192Z,88.20
2018-05-17T02:45:15.702Z,87.60
2018-05-17T02:47:48.328Z,87.60
2018-05-17T02:50:20.950Z,87.50
2018-05-17T02:52:53.288Z,87.80
2018-05-17T02:55:25.679Z,88.50
2018-05-17T02:57:57.979Z,88.50
2018-05-17T03:00:30.328Z,87.80
2018-05-17T03:03:02.649Z,88.90
2018-05-17T03:05:35.755Z,88.00
2018-05-17T03:08:08.144Z,87.90
2018-05-17T03:10:40.577Z,87.50
2018-05-17T03:13:12.909Z,88.50
2018-05-17T03:15:46.128Z,88.10
2018-05-17T03:18:18.624Z,88.10
2018-05-17T03:20:51.088Z,87.70
2018-05-17T03:23:23.334Z,87.30
2018-05-17T03:25:56.035Z,86.90
2018-05-17T03:28:29.122Z,86.90
2018-05-17T03:31:01.515Z,86.90
2018-05-17T03:33:34.784Z,87.10
2018-05-17T03:36:07.179Z,87.10
2018-05-17T03:38:40.330Z,86.80
2018-05-17T03:41:12.717Z,86.80
2018-05-17T03:43:45.105Z,86.70
2018-05-17T03:46:17.507Z,86.90
2018-05-17T03:48:50.085Z,86.20
2018-05-17T03:51:23.229Z,85.90
2018-05-17T03:53:55.583Z,85.80
2018-05-17T03:56:28.179Z,85.80
2018-05-17T03:59:00.637Z,86.20
2018-05-17T04:01:45.467Z,85.70
2018-05-17T04:04:30.917Z,84.80
2018-05-17T04:07:03.329Z,84.80
2018-05-17T04:09:36.389Z,84.60
2018-05-17T04:12:08.724Z,84.60
2018-05-17T04:14:41.118Z,85.30
2018-05-17T04:17:13.498Z,85.00
2018-05-17T04:19:45.849Z,84.00
2018-05-17T04:22:18.193Z,84.30
2018-05-17T04:24:50.453Z,85.30
2018-05-17T04:27:22.905Z,85.20
2018-05-17T04:29:55.992Z,84.60
2018-05-17T04:32:29.119Z,84.30
2018-05-17T04:35:01.375Z,84.30
2018-05-17T04:37:33.732Z,84.10
2018-05-17T04:40:06.781Z,84.60
2018-05-17T04:42:39.101Z,84.50
2018-05-17T04:45:12.238Z,84.60
2018-05-17T04:47:44.592Z,84.50
2018-05-17T04:50:16.875Z,85.10
2018-05-17T04:52:49.240Z,85.40
2018-05-17T04:55:21.503Z,84.50
2018-05-17T04:57:53.986Z,84.10
2018-05-17T05:00:26.286Z,83.70
2018-05-17T05:02:58.726Z,83.90
2018-05-17T05:05:30.980Z,84.10
2018-05-17T05:08:03.317Z,84.10
2018-05-17T05:10:35.674Z,84.20
2018-05-17T05:13:07.966Z,85.60
2018-05-17T05:15:41.109Z,84.90
2018-05-17T05:18:13.553Z,84.80
2018-05-17T05:20:45.898Z,84.60
2018-05-17T05:23:20.137Z,84.80
2018-05-17T05:25:52.441Z,84.80
2018-05-17T05:28:25.124Z,85.60
2018-05-17T05:30:57.415Z,84.80
2018-05-17T05:33:29.819Z,86.30
2018-05-17T05:36:03.013Z,83.20
2018-05-17T05:38:36.321Z,83.10
2018-05-17T05:41:08.662Z,83.10
2018-05-17T05:43:41.002Z,83.50
2018-05-17T05:46:13.413Z,83.80
2018-05-17T05:48:46.511Z,84.80
2018-05-17T05:51:19.525Z,84.10
2018-05-17T05:53:51.918Z,84.10
2018-05-17T05:56:24.331Z,83.80
2018-05-17T05:58:57.550Z,83.40
2018-05-17T06:01:29.745Z,83.40
2018-05-17T06:04:02.002Z,81.60
2018-05-17T06:06:34.293Z,81.20
2018-05-17T06:09:06.724Z,81.20
2018-05-17T06:11:39.766Z,81.50
2018-05-17T06:14:12.113Z,81.40
2018-05-17T06:16:44.506Z,82.30
2018-05-17T06:19:16.910Z,82.60
2018-05-17T06:21:49.257Z,82.40
2018-05-17T06:24:21.572Z,80.80
2018-05-17T06:26:54.725Z,79.90
2018-05-17T06:29:27.037Z,79.90
2018-05-17T06:31:59.316Z,79.40
2018-05-17T06:34:31.769Z,79.50
2018-05-17T06:37:04.926Z,79.40
2018-05-17T06:39:37.336Z,79.40
2018-05-17T06:42:10.474Z,80.60
2018-05-17T06:44:42.835Z,80.50
2018-05-17T06:47:15.226Z,79.70
2018-05-17T06:49:47.759Z,79.10
2018-05-17T06:52:20.107Z,79.60
2018-05-17T06:54:52.461Z,80.20
2018-05-17T06:57:24.772Z,80.90
2018-05-17T06:59:58.950Z,78.60
2018-05-17T07:02:31.308Z,78.50
2018-05-17T07:05:03.685Z,77.90
2018-05-17T07:07:35.982Z,79.30
2018-05-17T07:10:08.545Z,78.90
2018-05-17T07:12:41.005Z,78.10
2018-05-17T07:15:13.690Z,77.90
2018-05-17T07:17:45.981Z,78.30
2018-05-17T07:20:19.029Z,78.30
2018-05-17T07:22:51.524Z,78.30
2018-05-17T07:25:23.877Z,77.60
2018-05-17T07:27:56.143Z,77.90
2018-05-17T07:30:28.431Z,77.80
2018-05-17T07:33:01.854Z,78.60
2018-05-17T07:35:34.257Z,76.40
2018-05-17T07:38:06.601Z,77.30
2018-05-17T07:40:38.909Z,78.00
2018-05-17T07:43:11.243Z,77.70
2018-05-17T07:45:43.630Z,79.10
2018-05-17T07:48:16.725Z,76.20
2018-05-17T07:50:49.894Z,76.80
2018-05-17T07:53:22.248Z,76.80
2018-05-17T07:55:54.641Z,77.10
2018-05-17T07:58:26.976Z,76.40
2018-05-17T08:00:59.403Z,76.20
2018-05-17T08:03:31.664Z,77.20
2018-05-17T08:06:03.925Z,76.00
2018-05-17T08:08:36.217Z,75.80
2018-05-17T08:11:09.462Z,77.20
2018-05-17T08:13:41.782Z,77.20
2018-05-17T08:16:14.938Z,77.10
2018-05-17T08:18:47.326Z,77.00
2018-05-17T08:21:19.643Z,76.60
2018-05-17T08:23:52.035Z,76.00
2018-05-17T08:26:24.488Z,75.10
2018-05-17T08:28:56.921Z,74.00
2018-05-17T08:31:29.268Z,74.10
2018-05-17T08:34:01.645Z,74.60
2018-05-17T08:36:33.983Z,74.40
2018-05-17T08:39:06.344Z,74.20
2018-05-17T08:41:38.727Z,74.40
2018-05-17T08:44:11.766Z,75.00
2018-05-17T08:46:44.147Z,74.90
2018-05-17T08:49:17.329Z,72.50
2018-05-17T08:51:49.714Z,72.40
2018-05-17T08:54:22.048Z,70.50
2018-05-17T08:56:54.400Z,71.20
2018-05-17T08:59:26.642Z,71.30
2018-05-17T09:01:59.076Z,72.80
2018-05-17T09:04:31.366Z,73.70
2018-05-17T09:07:03.757Z,73.00
2018-05-17T09:09:36.760Z,72.50
2018-05-17T09:12:09.142Z,72.50
2018-05-17T09:14:41.414Z,74.60
2018-05-17T09:17:13.850Z,72.90
2018-05-17T09:19:46.979Z,72.80
2018-05-17T09:22:19.365Z,72.70
2018-05-17T09:24:51.764Z,73.20
2018-05-17T09:27:24.131Z,71.60
2018-05-17T09:29:56.481Z,73.00
2018-05-17T09:32:28.820Z,72.40
2018-05-17T09:35:01.941Z,73.00
2018-05-17T09:37:35.107Z,73.40
2018-05-17T09:40:07.446Z,73.40
2018-05-17T09:42:39.788Z,74.40
2018-05-17T09:45:12.173Z,74.20
2018-05-17T09:47:44.685Z,74.10
2018-05-17T09:50:17.731Z,75.50
2018-05-17T09:52:50.130Z,75.40
2018-05-17T09:55:23.191Z,76.10
2018-05-17T09:57:55.575Z,76.10
2018-05-17T10:00:27.968Z,76.20
2018-05-17T10:03:00.465Z,76.40
2018-05-17T10:05:33.600Z,76.80
2018-05-17T10:08:06.024Z,76.70
2018-05-17T10:10:39.081Z,76.30
2018-05-17T10:13:11.410Z,76.20
2018-05-17T10:15:44.578Z,75.60
2018-05-17T10:18:17.776Z,76.30
2018-05-17T10:20:50.147Z,76.30
2018-05-17T10:23:22.489Z,76.50
2018-05-17T10:25:54.740Z,77.90
2018-05-17T10:28:27.131Z,77.50
2018-05-17T10:30:59.503Z,77.60
2018-05-17T10:33:31.967Z,78.20
2018-05-17T10:36:04.156Z,78.30
2018-05-17T10:38:36.680Z,76.70
2018-05-17T10:41:09.069Z,76.20
2018-05-17T10:43:41.499Z,76.50
2018-05-17T10:46:13.873Z,78.00
2018-05-17T10:48:46.143Z,78.70
2018-05-17T10:51:18.522Z,78.80
2018-05-17T10:53:50.971Z,78.50
2018-05-17T10:56:24.104Z,78.90
2018-05-17T10:58:56.606Z,78.90
2018-05-17T11:01:28.990Z,77.60
2018-05-17T11:04:01.450Z,78.40
2018-05-17T11:06:33.769Z,79.30
2018-05-17T11:09:06.924Z,79.20
2018-05-17T11:11:39.301Z,79.20
2018-05-17T11:14:11.680Z,79.30
2018-05-17T11:16:43.957Z,79.00
2018-05-17T11:19:16.337Z,78.40
2018-05-17T11:21:49.467Z,78.50
2018-05-17T11:24:21.830Z,78.50
2018-05-17T11:26:54.311Z,79.00
2018-05-17T11:29:26.798Z,78.70
2018-05-17T11:31:59.088Z,78.50
2018-05-17T11:34:31.737Z,78.90
2018-05-17T11:37:04.179Z,79.20
2018-05-17T11:39:37.263Z,79.60
2018-05-17T11:42:10.342Z,79.00
2018-05-17T11:44:42.733Z,78.90
2018-05-17T11:47:15.060Z,77.70
2018-05-17T11:49:47.461Z,77.60
2018-05-17T11:52:19.682Z,78.20
2018-05-17T11:54:52.195Z,78.70
2018-05-17T11:57:24.464Z,78.70
2018-05-17T11:59:56.971Z,78.40
2018-05-17T12:02:30.137Z,78.50
2018-05-17T12:05:02.551Z,78.50
2018-05-17T12:07:34.881Z,78.70
2018-05-17T12:10:07.180Z,79.00
2018-05-17T12:12:40.314Z,77.90
2018-05-17T12:15:12.586Z,77.90
2018-05-17T12:17:45.010Z,78.40
2018-05-17T12:20:17.341Z,78.90
2018-05-17T12:22:49.562Z,78.80
2018-05-17T12:25:21.945Z,79.70
2018-05-17T12:27:54.278Z,79.60
2018-05-17T12:30:26.568Z,79.40
2018-05-17T12:32:59.044Z,80.00
2018-05-17T12:35:32.259Z,79.20
2018-05-17T12:38:04.826Z,79.80
2018-05-17T12:40:37.221Z,79.00
2018-05-17T12:43:09.522Z,79.20
2018-05-17T12:45:42.202Z,78.30
2018-05-17T12:48:14.466Z,78.60
2018-05-17T12:50:46.808Z,78.90
2018-05-17T12:53:19.949Z,80.00
2018-05-17T12:55:52.665Z,79.90
2018-05-17T12:58:25.013Z,79.00
2018-05-17T13:00:57.489Z,78.60
2018-05-17T13:03:30.716Z,77.90
2018-05-17T13:06:03.197Z,77.90
2018-05-17T13:08:35.574Z,77.90
2018-05-17T13:11:07.863Z,77.90
2018-05-17T13:13:40.227Z,78.70
2018-05-17T13:16:12.576Z,78.30
2018-05-17T13:18:44.903Z,78.30
2018-05-17T13:21:17.922Z,78.10
2018-05-17T13:23:50.138Z,78.10
2018-05-17T13:26:22.405Z,78.60
2018-05-17T13:28:54.695Z,78.50
2018-05-17T13:31:27.034Z,79.40
2018-05-17T13:33:59.417Z,79.20
2018-05-17T13:36:31.802Z,79.50
2018-05-17T13:39:04.115Z,79.30
2018-05-17T13:41:37.203Z,80.10
2018-05-17T13:44:09.615Z,80.10
2018-05-17T13:46:41.951Z,79.50
2018-05-17T13:49:14.574Z,79.20
2018-05-17T13:51:46.845Z,79.70
2018-05-17T13:54:19.134Z,79.70
2018-05-17T13:56:51.720Z,79.70
2018-05-17T13:59:24.051Z,80.40
2018-05-17T14:01:56.375Z,79.90
2018-05-17T14:04:28.733Z,79.80
2018-05-17T14:07:01.924Z,79.70
2018-05-17T14:09:34.291Z,79.70
2018-05-17T14:12:06.689Z,80.00
2018-05-17T14:14:39.804Z,80.00
2018-05-17T14:17:12.187Z,79.90
2018-05-17T14:19:45.291Z,79.80
2018-05-17T14:22:17.962Z,79.80
2018-05-17T14:24:50.234Z,79.60
2018-05-17T14:27:22.520Z,79.80
2018-05-17T14:29:54.862Z,80.10
2018-05-17T14:32:27.212Z,80.00
2018-05-17T14:34:59.526Z,80.60
2018-05-17T14:37:32.085Z,81.50
2018-05-17T14:40:04.388Z,81.30
2018-05-17T14:42:36.745Z,80.90
2018-05-17T14:45:08.980Z,81.20
2018-05-17T14:47:42.148Z,80.60
2018-05-17T14:50:15.252Z,81.70
2018-05-17T14:52:48.469Z,81.00
2018-05-17T14:55:21.607Z,81.30
2018-05-17T14:57:53.943Z,81.30
2018-05-17T15:00:26.371Z,81.40
2018-05-17T15:02:59.426Z,82.70
2018-05-17T15:05:31.808Z,82.70
2018-05-17T15:08:04.186Z,82.80
2018-05-17T15:10:36.536Z,82.60
2018-05-17T15:13:08.953Z,82.80
2018-05-17T15:15:42.111Z,81.60
2018-05-17T15:18:14.491Z,81.60
2018-05-17T15:20:46.851Z,81.70
2018-05-17T15:23:19.224Z,82.20
2018-05-17T15:25:51.514Z,82.50
2018-05-17T15:28:23.909Z,83.00
2018-05-17T15:30:56.925Z,82.20
2018-05-17T15:33:29.265Z,82.20
2018-05-17T15:36:02.328Z,81.40
2018-05-17T15:38:34.716Z,81.30
2018-05-17T15:41:07.067Z,80.80
2018-05-17T15:43:39.470Z,80.70
2018-05-17T15:46:12.575Z,81.20
2018-05-17T15:48:45.702Z,80.90
2018-05-17T15:51:18.080Z,80.70
2018-05-17T15:53:50.531Z,80.30
2018-05-17T15:56:22.924Z,80.70
2018-05-17T15:58:55.441Z,80.70
2018-05-17T16:01:28.516Z,80.70
2018-05-17T16:04:01.079Z,80.70
2018-05-17T16:06:33.336Z,80.60
2018-05-17T16:09:05.790Z,80.20
2018-05-17T16:11:38.106Z,81.00
2018-05-17T16:14:10.461Z,80.50
2018-05-17T16:16:42.839Z,80.80
2018-05-17T16:19:15.179Z,81.20
2018-05-17T16:21:47.552Z,81.40
2018-05-17T16:24:19.956Z,81.50
2018-05-17T16:26:52.344Z,81.60
2018-05-17T16:29:24.847Z,82.00
2018-05-17T16:31:57.864Z,82.10
2018-05-17T16:34:30.147Z,82.00
2018-05-17T16:37:02.656Z,82.30
2018-05-17T16:39:34.996Z,82.00
2018-05-17T16:42:07.407Z,82.00
2018-05-17T16:44:40.614Z,82.10
2018-05-17T16:47:13.752Z,82.00
2018-05-17T16:49:46.231Z,81.90
2018-05-17T16:52:18.602Z,83.00
2018-05-17T16:54:50.906Z,82.80
2018-05-17T16:57:23.331Z,82.70
2018-05-17T16:59:55.665Z,82.90
2018-05-17T17:02:28.799Z,82.70
2018-05-17T17:05:01.143Z,82.70
2018-05-17T17:07:33.616Z,83.80
2018-05-17T17:10:06.719Z,83.50
2018-05-17T17:12:39.006Z,83.50
2018-05-17T17:15:11.392Z,84.30
2018-05-17T17:17:43.720Z,84.60
2018-05-17T17:20:16.051Z,84.00
2018-05-17T17:22:48.431Z,83.20
2018-05-17T17:25:20.799Z,84.10
2018-05-17T17:27:53.158Z,84.10
2018-05-17T17:30:25.589Z,84.20
2018-05-17T17:32:57.875Z,84.40
2018-05-17T17:35:30.294Z,83.80
2018-05-17T17:38:02.651Z,84.00
2018-05-17T17:40:35.098Z,84.60
2018-05-17T17:43:07.490Z,85.00
2018-05-17T17:45:39.798Z,85.10
2018-05-17T17:48:12.140Z,84.50
2018-05-17T17:50:44.515Z,85.30
2018-05-17T17:53:16.908Z,85.30
2018-05-17T17:55:49.262Z,85.10
2018-05-17T17:58:21.594Z,85.00
2018-05-17T18:00:53.918Z,85.20
2018-05-17T18:03:26.264Z,85.30
2018-05-17T18:05:58.892Z,85.60
2018-05-17T18:08:32.744Z,85.60
2018-05-17T18:11:05.263Z,85.50
2018-05-17T18:13:37.606Z,85.30
2018-05-17T18:16:10.000Z,85.80
2018-05-17T18:18:49.592Z,85.60
2018-05-17T18:21:21.934Z,85.70
2018-05-17T18:23:54.285Z,86.30
2018-05-17T18:26:26.692Z,85.80
2018-05-17T18:28:58.976Z,85.60
2018-05-17T18:31:31.415Z,85.50
2018-05-17T18:34:03.772Z,85.80
2018-05-17T18:36:36.401Z,85.90
2018-05-17T18:39:08.700Z,85.70
2018-05-17T18:41:41.021Z,86.10
2018-05-17T18:44:13.344Z,86.30
2018-05-17T18:46:45.773Z,86.40
2018-05-17T18:49:18.109Z,85.90
2018-05-17T18:51:50.506Z,86.00
2018-05-17T18:54:23.594Z,86.20
2018-05-17T18:56:56.084Z,86.20
2018-05-17T18:59:29.158Z,86.90
2018-05-17T19:02:02.558Z,87.20
2018-05-17T19:04:35.727Z,86.80
2018-05-17T19:07:08.104Z,86.80
2018-05-17T19:09:40.412Z,86.70
2018-05-17T19:12:12.896Z,86.50
2018-05-17T19:14:45.279Z,86.80
2018-05-17T19:17:17.631Z,86.90
2018-05-17T19:19:49.979Z,87.10
2018-05-17T19:22:22.297Z,86.90
2018-05-17T19:24:55.289Z,87.50
2018-05-17T19:27:27.636Z,87.60
2018-05-17T19:30:00.062Z,88.00
2018-05-17T19:32:33.368Z,88.60
2018-05-17T19:35:05.813Z,88.50
2018-05-17T19:37:38.311Z,88.20
2018-05-17T19:40:10.711Z,88.50
2018-05-17T19:42:43.181Z,88.60
2018-05-17T19:45:16.383Z,88.90
2018-05-17T19:47:48.687Z,88.30
2018-05-17T19:50:21.030Z,88.30
2018-05-17T19:52:53.538Z,88.50
2018-05-17T19:55:26.660Z,88.00
2018-05-17T19:57:58.990Z,88.00
2018-05-17T20:00:31.327Z,87.40
2018-05-17T20:03:04.397Z,87.30
2018-05-17T20:05:36.762Z,87.30
2018-05-17T20:08:09.285Z,87.50
2018-05-17T20:10:42.642Z,87.90
2018-05-17T20:13:15.860Z,87.40
2018-05-17T20:15:48.315Z,87.40
2018-05-17T20:18:20.653Z,87.30
2018-05-17T20:20:53.026Z,87.20
2018-05-17T20:23:25.454Z,87.60
2018-05-17T20:25:57.821Z,87.60
2018-05-17T20:28:30.204Z,86.50
2018-05-17T20:31:02.540Z,86.70
2018-05-17T20:33:34.831Z,87.20
2018-05-17T20:36:07.838Z,86.60
2018-05-17T20:38:40.123Z,86.60
2018-05-17T20:41:12.354Z,86.50
2018-05-17T20:43:45.437Z,87.20
2018-05-17T20:46:18.630Z,86.60
2018-05-17T20:48:51.651Z,87.00
2018-05-17T20:51:24.026Z,87.00
2018-05-17T20:53:56.457Z,86.50
2018-05-17T20:56:28.741Z,86.10
2018-05-17T20:59:01.819Z,86.40
2018-05-17T21:01:34.112Z,86.30
2018-05-17T21:04:06.491Z,85.30
2018-05-17T21:06:39.743Z,85.70
2018-05-17T21:09:12.343Z,85.60
2018-05-17T21:11:45.469Z,85.50
2018-05-17T21:14:17.941Z,85.80
2018-05-17T21:16:50.522Z,85.70
2018-05-17T21:19:23.660Z,86.40
2018-05-17T21:21:56.114Z,86.40
2018-05-17T21:24:28.639Z,86.90
2018-05-17T21:27:01.138Z,86.50
2018-05-17T21:29:33.510Z,86.60
2018-05-17T21:32:05.930Z,86.10
2018-05-17T21:34:38.404Z,85.80
2018-05-17T21:37:10.701Z,86.00
2018-05-17T21:39:43.074Z,85.70
2018-05-17T21:42:16.181Z,86.70
2018-05-17T21:44:48.627Z,86.60
2018-05-17T21:47:21.799Z,86.10
2018-05-17T21:49:54.349Z,86.10
2018-05-17T21:52:26.984Z,86.20
2018-05-17T21:55:00.079Z,86.50
2018-05-17T21:57:32.328Z,86.50
2018-05-17T22:00:05.481Z,87.10
2018-05-17T22:02:37.848Z,87.00
2018-05-17T22:05:10.198Z,85.90
2018-05-17T22:07:42.551Z,85.90
2018-05-17T22:10:15.718Z,86.10
2018-05-17T22:12:48.865Z,86.40
2018-05-17T22:15:21.408Z,86.40
2018-05-17T22:17:54.513Z,86.00
2018-05-17T22:20:27.108Z,86.00
2018-05-17T22:22:59.569Z,86.40
2018-05-17T22:25:31.989Z,86.20
2018-05-17T22:28:04.249Z,86.90
2018-05-17T22:30:36.675Z,85.70
2018-05-17T22:33:09.019Z,86.40
2018-05-17T22:35:41.425Z,86.00
2018-05-17T22:38:13.829Z,86.60
2018-05-17T22:40:46.191Z,86.40
2018-05-17T22:43:18.556Z,85.60
2018-05-17T22:45:51.179Z,86.40
2018-05-17T22:48:23.808Z,86.00
2018-05-17T22:50:56.112Z,86.00
2018-05-17T22:53:28.386Z,86.40
2018-05-17T22:56:00.834Z,87.30
2018-05-17T22:58:36.963Z,86.30
2018-05-17T23:01:09.229Z,86.80
2018-05-17T23:03:41.549Z,86.70
2018-05-17T23:06:14.023Z,86.40
2018-05-17T23:08:46.406Z,86.20
2018-05-17T23:11:18.944Z,86.70
2018-05-17T23:13:51.256Z,86.90
2018-05-17T23:16:23.628Z,86.20
2018-05-17T23:18:55.934Z,86.50
2018-05-17T23:21:29.093Z,86.60
2018-05-17T23:24:01.372Z,86.50
2018-05-17T23:26:33.627Z,85.90
2018-05-17T23:29:05.934Z,85.90
2018-05-17T23:31:38.356Z,85.80
2018-05-17T23:34:10.626Z,86.10
2018-05-17T23:36:43.379Z,86.30
2018-05-17T23:39:15.853Z,86.80
2018-05-17T23:41:51.575Z,86.40
2018-05-17T23:44:23.980Z,87.10
2018-05-17T23:46:56.301Z,86.80
2018-05-17T23:49:28.653Z,86.40
2018-05-17T23:52:01.001Z,86.50
2018-05-17T23:54:33.378Z,86.00
2018-05-17T23:57:05.731Z,85.90
2018-05-17T23:59:38.091Z,86.10
